createdAt,value
2023-02-04T00:00:16.686Z,-0.91
2023-02-04T00:02:43.809Z,-0.91
2023-02-04T00:05:11.045Z,-0.90
2023-02-04T00:07:41.044Z,-0.89
2023-02-04T00:10:09.165Z,-0.87
2023-02-04T00:12:36.774Z,-0.86
2023-02-04T00:15:04.970Z,-0.86
2023-02-04T00:17:32.707Z,-0.87
2023-02-04T00:20:00.205Z,-0.86
2023-02-04T00:22:28.652Z,-0.86
2023-02-04T00:24:56.095Z,-0.85
2023-02-04T00:27:23.858Z,-0.84
2023-02-04T00:29:51.067Z,-0.82
2023-02-04T00:32:19.255Z,-0.82
2023-02-04T00:34:47.315Z,-0.83
2023-02-04T00:37:14.531Z,-0.83
2023-02-04T00:39:42.307Z,-0.84
2023-02-04T00:42:09.506Z,-0.84
2023-02-04T00:44:36.795Z,-0.85
2023-02-04T00:47:04.343Z,-0.86
2023-02-04T00:49:33.444Z,-0.89
2023-02-04T00:52:00.991Z,-0.89
2023-02-04T00:54:28.182Z,-0.89
2023-02-04T00:56:55.317Z,-0.89
2023-02-04T00:59:22.863Z,-0.91
2023-02-04T01:01:51.330Z,-0.92
2023-02-04T01:04:18.737Z,-0.94
2023-02-04T01:06:47.195Z,-0.95
2023-02-04T01:09:14.524Z,-0.96
2023-02-04T01:11:44.134Z,-0.96
2023-02-04T01:14:12.241Z,-0.95
2023-02-04T01:16:39.807Z,-0.95
2023-02-04T01:19:07.117Z,-0.95
2023-02-04T01:21:34.579Z,-0.97
2023-02-04T01:24:02.238Z,-0.99
2023-02-04T01:26:29.800Z,-0.99
2023-02-04T01:28:57.150Z,-1.01
2023-02-04T01:31:25.295Z,-1.02
2023-02-04T01:33:52.804Z,-1.06
2023-02-04T01:36:21.376Z,-1.12
2023-02-04T01:38:49.129Z,-1.16
2023-02-04T01:41:17.301Z,-1.18
2023-02-04T01:43:46.144Z,-1.19
2023-02-04T01:46:13.655Z,-1.21
2023-02-04T01:48:41.012Z,-1.23
2023-02-04T01:51:10.711Z,-1.25
2023-02-04T01:53:37.866Z,-1.23
2023-02-04T01:56:19.654Z,-1.24
2023-02-04T01:58:47.322Z,-1.24
2023-02-04T02:01:33.684Z,-1.26
2023-02-04T02:04:01.295Z,-1.28
2023-02-04T02:06:29.354Z,-1.27
2023-02-04T02:08:57.932Z,-1.27
2023-02-04T02:11:26.106Z,-1.28
2023-02-04T02:13:54.484Z,-1.28
2023-02-04T02:16:22.095Z,-1.27
2023-02-04T02:18:49.500Z,-1.28
2023-02-04T02:21:16.749Z,-1.29
2023-02-04T02:23:48.323Z,-1.31
2023-02-04T02:26:15.967Z,-1.32
2023-02-04T02:28:43.743Z,-1.33
2023-02-04T02:31:12.246Z,-1.35
2023-02-04T02:33:39.641Z,-1.36
2023-02-04T02:36:07.329Z,-1.35
2023-02-04T02:38:35.214Z,-1.32
2023-02-04T02:41:03.266Z,-1.33
2023-02-04T02:43:30.969Z,-1.31
2023-02-04T02:45:59.154Z,-1.30
2023-02-04T02:48:26.384Z,-1.30
2023-02-04T02:50:53.446Z,-1.29
2023-02-04T02:53:21.470Z,-1.29
2023-02-04T02:55:49.129Z,-1.30
2023-02-04T02:58:32.136Z,-1.31
2023-02-04T03:01:00.978Z,-1.33
2023-02-04T03:03:30.851Z,-1.32
2023-02-04T03:06:15.818Z,-1.31
2023-02-04T03:08:43.894Z,-1.32
2023-02-04T03:11:15.651Z,-1.32
2023-02-04T03:13:44.741Z,-1.31
2023-02-04T03:16:12.131Z,-1.29
2023-02-04T03:18:39.759Z,-1.28
2023-02-04T03:21:06.929Z,-1.27
2023-02-04T03:23:34.680Z,-1.25
2023-02-04T03:26:03.873Z,-1.22
2023-02-04T03:28:32.250Z,-1.22
2023-02-04T03:30:59.987Z,-1.20
2023-02-04T03:33:30.961Z,-1.19
2023-02-04T03:35:58.618Z,-1.18
2023-02-04T03:38:26.177Z,-1.18
2023-02-04T03:40:53.538Z,-1.17
2023-02-04T03:43:21.095Z,-1.18
2023-02-04T03:45:48.312Z,-1.19
2023-02-04T03:48:15.703Z,-1.20
2023-02-04T03:50:42.926Z,-1.22
2023-02-04T03:53:10.100Z,-1.26
2023-02-04T03:55:37.570Z,-1.30
2023-02-04T03:58:05.318Z,-1.32
2023-02-04T04:00:33.302Z,-1.35
2023-02-04T04:03:00.882Z,-1.38
2023-02-04T04:05:28.276Z,-1.41
2023-02-04T04:07:55.471Z,-1.45
2023-02-04T04:10:23.430Z,-1.47
2023-02-04T04:12:50.518Z,-1.51
2023-02-04T04:15:18.383Z,-1.55
2023-02-04T04:17:45.445Z,-1.57
2023-02-04T04:20:12.589Z,-1.60
2023-02-04T04:22:40.090Z,-1.61
2023-02-04T04:25:07.694Z,-1.63
2023-02-04T04:27:34.941Z,-1.65
2023-02-04T04:30:03.083Z,-1.67
2023-02-04T04:32:30.846Z,-1.68
2023-02-04T04:34:58.808Z,-1.71
2023-02-04T04:37:26.891Z,-1.73
2023-02-04T04:39:54.234Z,-1.74
2023-02-04T04:42:21.613Z,-1.74
2023-02-04T04:44:49.255Z,-1.74
2023-02-04T04:47:16.543Z,-1.75
2023-02-04T04:49:44.575Z,-1.73
2023-02-04T04:52:11.826Z,-1.73
2023-02-04T04:54:40.204Z,-1.72
2023-02-04T04:57:07.448Z,-1.71
2023-02-04T04:59:34.812Z,-1.69
2023-02-04T05:02:02.012Z,-1.68
2023-02-04T05:04:29.489Z,-1.67
2023-02-04T05:06:56.665Z,-1.66
2023-02-04T05:09:23.826Z,-1.66
2023-02-04T05:11:50.982Z,-1.65
2023-02-04T05:14:19.037Z,-1.65
2023-02-04T05:16:46.392Z,-1.65
2023-02-04T05:19:13.644Z,-1.65
2023-02-04T05:21:41.482Z,-1.67
2023-02-04T05:24:08.865Z,-1.67
2023-02-04T05:26:36.121Z,-1.67
2023-02-04T05:29:03.479Z,-1.65
2023-02-04T05:31:32.214Z,-1.65
2023-02-04T05:33:59.721Z,-1.64
2023-02-04T05:36:27.081Z,-1.64
2023-02-04T05:38:55.468Z,-1.64
2023-02-04T05:41:22.811Z,-1.64
2023-02-04T05:43:50.165Z,-1.64
2023-02-04T05:46:17.724Z,-1.63
2023-02-04T05:48:45.382Z,-1.61
2023-02-04T05:51:12.641Z,-1.60
2023-02-04T05:53:40.187Z,-1.59
2023-02-04T05:56:07.404Z,-1.58
2023-02-04T05:58:35.206Z,-1.56
2023-02-04T06:01:03.065Z,-1.54
2023-02-04T06:03:30.885Z,-1.54
2023-02-04T06:05:58.965Z,-1.53
2023-02-04T06:08:26.270Z,-1.51
2023-02-04T06:10:54.028Z,-1.52
2023-02-04T06:40:13.135Z,-1.40
2023-02-04T06:42:41.580Z,-1.29
2023-02-04T06:45:10.449Z,-1.26
2023-02-04T06:47:39.036Z,-1.28
2023-02-04T06:50:08.435Z,-1.30
2023-02-04T06:52:37.538Z,-1.31
2023-02-04T06:55:06.627Z,-1.33
2023-02-04T06:57:36.031Z,-1.34
2023-02-04T07:00:06.237Z,-1.33
2023-02-04T07:02:35.595Z,-1.30
2023-02-04T07:05:04.444Z,-1.31
2023-02-04T07:07:33.153Z,-1.33
2023-02-04T07:10:01.939Z,-1.32
2023-02-04T07:12:31.421Z,-1.35
2023-02-04T07:15:00.118Z,-1.37
2023-02-04T07:17:28.833Z,-1.39
2023-02-04T07:19:57.247Z,-1.38
2023-02-04T07:22:25.854Z,-1.38
2023-02-04T07:24:54.544Z,-1.37
2023-02-04T07:27:23.328Z,-1.35
2023-02-04T07:29:52.222Z,-1.31
2023-02-04T07:32:21.212Z,-1.28
2023-02-04T07:34:49.900Z,-1.25
2023-02-04T07:37:20.433Z,-1.22
2023-02-04T07:39:48.881Z,-1.20
2023-02-04T07:42:17.534Z,-1.19
2023-02-04T07:44:51.991Z,-1.19
2023-02-04T07:47:20.655Z,-1.19
2023-02-04T07:49:49.387Z,-1.18
2023-02-04T07:52:17.883Z,-1.17
2023-02-04T07:54:46.300Z,-1.17
2023-02-04T07:57:14.716Z,-1.17
2023-02-04T07:59:43.219Z,-1.19
2023-02-04T08:02:12.803Z,-1.22
2023-02-04T08:04:42.511Z,-1.25
2023-02-04T08:07:11.168Z,-1.24
2023-02-04T08:09:39.527Z,-1.23
2023-02-04T08:12:08.115Z,-1.24
2023-02-04T08:14:37.757Z,-1.24
2023-02-04T08:17:06.366Z,-1.24
2023-02-04T08:19:35.385Z,-1.26
2023-02-04T08:22:04.432Z,-1.27
2023-02-04T08:24:33.615Z,-1.29
2023-02-04T08:27:02.979Z,-1.30
2023-02-04T08:29:31.624Z,-1.31
2023-02-04T08:32:00.371Z,-1.30
2023-02-04T08:34:29.333Z,-1.31
2023-02-04T08:36:58.216Z,-1.36
2023-02-04T08:39:26.975Z,-1.38
2023-02-04T08:41:55.793Z,-1.39
2023-02-04T08:44:24.945Z,-1.41
2023-02-04T08:46:54.793Z,-1.42
2023-02-04T08:49:23.556Z,-1.43
2023-02-04T08:51:55.538Z,-1.44
2023-02-04T08:54:33.909Z,-1.48
2023-02-04T08:57:05.135Z,-1.49
2023-02-04T08:59:34.913Z,-1.50
2023-02-04T09:02:04.801Z,-1.50
2023-02-04T09:04:36.083Z,-1.48
2023-02-04T09:07:04.639Z,-1.49
2023-02-04T09:09:34.581Z,-1.50
2023-02-04T09:12:03.573Z,-1.48
2023-02-04T09:14:33.693Z,-1.48
2023-02-04T09:17:02.384Z,-1.48
2023-02-04T09:19:31.282Z,-1.48
2023-02-04T09:22:00.083Z,-1.49
2023-02-04T09:24:28.856Z,-1.46
2023-02-04T09:26:57.441Z,-1.44
2023-02-04T09:29:26.128Z,-1.41
2023-02-04T09:31:55.046Z,-1.38
2023-02-04T09:34:24.423Z,-1.36
2023-02-04T09:36:53.115Z,-1.35
2023-02-04T09:39:21.700Z,-1.27
2023-02-04T09:41:50.124Z,-1.23
2023-02-04T09:44:20.191Z,-1.25
2023-02-04T09:46:53.817Z,-1.29
2023-02-04T09:49:22.412Z,-1.30
2023-02-04T09:51:50.824Z,-1.29
2023-02-04T09:54:20.571Z,-1.25
2023-02-04T09:56:52.649Z,-1.23
2023-02-04T09:59:23.263Z,-1.21
2023-02-04T10:01:55.679Z,-1.20
2023-02-04T10:04:25.102Z,-1.20
2023-02-04T10:06:53.641Z,-1.16
2023-02-04T10:09:22.532Z,-1.09
2023-02-04T10:11:53.200Z,-1.06
2023-02-04T10:27:56.030Z,-0.60
2023-02-04T10:30:27.204Z,-0.48
2023-02-04T10:32:55.941Z,-0.52
2023-02-04T10:35:24.627Z,-0.56
2023-02-04T10:38:06.198Z,-0.64
2023-02-04T10:40:36.235Z,-0.66
2023-02-04T10:43:11.886Z,-0.62
2023-02-04T10:45:40.674Z,-0.58
2023-02-04T10:48:16.527Z,-0.57
2023-02-04T10:50:46.827Z,-0.55
2023-02-04T10:53:43.685Z,-0.57
2023-02-04T10:56:18.584Z,-0.56
2023-02-04T10:58:48.029Z,-0.56
2023-02-04T11:01:17.509Z,-0.57
2023-02-04T11:03:48.370Z,-0.54
2023-02-04T11:06:22.646Z,-0.52
2023-02-04T11:08:53.735Z,-0.49
2023-02-04T11:11:26.230Z,-0.49
2023-02-04T11:13:55.370Z,-0.53
2023-02-04T11:16:31.770Z,-0.56
2023-02-04T11:19:01.269Z,-0.55
2023-02-04T11:21:33.450Z,-0.51
2023-02-04T11:24:11.563Z,-0.51
2023-02-04T11:26:51.585Z,-0.53
2023-02-04T11:29:39.153Z,-0.58
2023-02-04T11:32:28.891Z,-0.62
2023-02-04T11:35:27.718Z,-0.62
2023-02-04T11:37:56.697Z,-0.63
2023-02-04T11:40:25.899Z,-0.68
2023-02-04T11:43:10.477Z,-0.71
2023-02-04T11:45:39.657Z,-0.77
2023-02-04T11:48:14.081Z,-0.79
2023-02-04T11:50:42.831Z,-0.79
2023-02-04T11:53:13.618Z,-0.81
2023-02-04T11:55:47.714Z,-0.83
2023-02-04T11:58:18.637Z,-0.84
2023-02-04T12:00:47.449Z,-0.85
2023-02-04T12:03:22.424Z,-0.85
2023-02-04T12:05:51.759Z,-0.84
2023-02-04T12:08:25.665Z,-0.81
2023-02-04T12:11:03.230Z,-0.82
2023-02-04T12:13:32.942Z,-0.82
2023-02-04T12:16:06.653Z,-0.80
2023-02-04T12:18:35.460Z,-0.77
2023-02-04T12:21:05.173Z,-0.76
2023-02-04T12:23:33.971Z,-0.75
2023-02-04T12:26:02.663Z,-0.80
2023-02-04T12:28:31.741Z,-0.85
2023-02-04T12:31:00.816Z,-0.87
2023-02-04T12:33:29.929Z,-0.88
2023-02-04T12:35:58.719Z,-0.91
2023-02-04T12:38:28.635Z,-0.92
2023-02-04T12:40:57.388Z,-0.90
2023-02-04T12:43:28.382Z,-0.89
2023-02-04T12:45:57.349Z,-0.90
2023-02-04T12:48:26.332Z,-0.90
2023-02-04T12:50:55.025Z,-0.87
2023-02-04T12:53:24.531Z,-0.86
2023-02-04T12:55:53.224Z,-0.83
2023-02-04T12:58:21.945Z,-0.82
2023-02-04T13:00:50.882Z,-0.78
2023-02-04T13:03:20.091Z,-0.73
2023-02-04T13:05:48.983Z,-0.70
2023-02-04T13:08:17.935Z,-0.71
2023-02-04T13:10:52.009Z,-0.76
2023-02-04T13:13:22.622Z,-0.81
2023-02-04T13:15:51.337Z,-0.88
2023-02-04T13:18:20.217Z,-0.94
2023-02-04T13:20:50.325Z,-0.98
2023-02-04T13:23:19.206Z,-0.98
2023-02-04T13:25:48.632Z,-0.97
2023-02-04T13:28:17.325Z,-0.98
2023-02-04T13:30:46.511Z,-0.97
2023-02-04T13:33:15.237Z,-0.95
2023-02-04T13:35:45.720Z,-0.92
2023-02-04T13:38:14.406Z,-0.82
2023-02-04T13:40:43.183Z,-0.71
2023-02-04T13:43:12.077Z,-0.50
2023-02-04T13:45:47.681Z,-0.22
2023-02-04T13:48:16.942Z,0.04
2023-02-04T13:50:45.713Z,0.17
2023-02-04T13:53:14.499Z,0.28
2023-02-04T13:55:43.462Z,0.25
2023-02-04T13:58:12.072Z,0.13
2023-02-04T14:00:41.181Z,0.09
2023-02-04T14:03:10.058Z,0.11
2023-02-04T14:05:39.052Z,0.12
2023-02-04T14:08:07.838Z,0.11
2023-02-04T14:10:38.486Z,0.06
2023-02-04T14:13:11.151Z,-0.02
2023-02-04T14:15:42.094Z,-0.14
2023-02-04T14:18:14.150Z,-0.24
2023-02-04T14:20:43.450Z,-0.36
2023-02-04T14:23:12.441Z,-0.51
2023-02-04T14:25:41.536Z,-0.63
2023-02-04T14:28:10.483Z,-0.73
2023-02-04T14:30:39.459Z,-0.82
2023-02-04T14:33:09.643Z,-0.90
2023-02-04T14:35:39.554Z,-0.98
2023-02-04T14:38:08.344Z,-1.05
2023-02-04T14:40:36.988Z,-1.14
2023-02-04T14:43:07.665Z,-1.22
2023-02-04T14:45:37.010Z,-1.30
2023-02-04T14:48:06.669Z,-1.38
2023-02-04T14:50:36.326Z,-1.47
2023-02-04T14:53:04.974Z,-1.54
2023-02-04T14:55:33.650Z,-1.60
2023-02-04T14:58:02.649Z,-1.64
2023-02-04T15:00:32.502Z,-1.67
2023-02-04T15:03:01.557Z,-1.69
2023-02-04T15:05:31.068Z,-1.71
2023-02-04T15:07:59.646Z,-1.74
2023-02-04T15:10:29.247Z,-1.76
2023-02-04T15:12:58.650Z,-1.78
2023-02-04T15:15:32.226Z,-1.82
2023-02-04T15:18:01.058Z,-1.87
2023-02-04T15:20:29.819Z,-1.94
2023-02-04T15:23:00.665Z,-2.00
2023-02-04T15:25:29.758Z,-2.03
2023-02-04T15:27:58.899Z,-2.06
2023-02-04T15:30:27.680Z,-2.11
2023-02-04T15:35:43.441Z,-2.16
2023-02-04T15:38:12.369Z,-2.18
2023-02-04T15:40:43.578Z,-2.19
2023-02-04T15:43:12.486Z,-2.20
2023-02-04T15:45:44.522Z,-2.22
2023-02-04T15:48:13.114Z,-2.23
2023-02-04T15:50:42.513Z,-2.23
2023-02-04T15:53:11.713Z,-2.23
2023-02-04T15:55:43.064Z,-2.24
2023-02-04T15:58:12.365Z,-2.27
2023-02-04T16:00:44.244Z,-2.29
2023-02-04T16:03:13.290Z,-2.33
2023-02-04T16:05:42.118Z,-2.38
2023-02-04T16:08:11.175Z,-2.44
2023-02-04T16:10:39.702Z,-2.50
2023-02-04T16:13:08.581Z,-2.56
2023-02-04T16:15:37.834Z,-2.61
2023-02-04T16:18:06.366Z,-2.66
2023-02-04T16:20:35.558Z,-2.72
2023-02-04T16:23:04.720Z,-2.76
2023-02-04T16:25:34.666Z,-2.80
2023-02-04T16:28:06.068Z,-2.84
2023-02-04T16:30:35.362Z,-2.86
2023-02-04T16:33:04.090Z,-2.87
2023-02-04T16:35:36.397Z,-2.88
2023-02-04T16:38:04.850Z,-2.87
2023-02-04T16:40:33.958Z,-2.87
2023-02-04T16:43:02.835Z,-2.86
2023-02-04T16:45:32.868Z,-2.84
2023-02-04T16:48:01.848Z,-2.82
2023-02-04T16:50:31.529Z,-2.79
2023-02-04T16:53:00.752Z,-2.77
2023-02-04T16:55:31.026Z,-2.75
2023-02-04T16:58:00.097Z,-2.73
2023-02-04T17:00:29.570Z,-2.71
2023-02-04T17:02:58.178Z,-2.70
2023-02-04T17:05:26.741Z,-2.69
2023-02-04T17:07:55.844Z,-2.69
2023-02-04T17:10:43.975Z,-2.69
2023-02-04T17:13:12.774Z,-2.67
2023-02-04T17:15:41.879Z,-2.66
2023-02-04T17:18:10.447Z,-2.63
2023-02-04T17:20:39.549Z,-2.61
2023-02-04T17:23:08.310Z,-2.59
2023-02-04T17:25:37.114Z,-2.57
2023-02-04T17:28:06.287Z,-2.55
2023-02-04T17:30:35.540Z,-2.53
2023-02-04T17:33:04.706Z,-2.51
2023-02-04T17:35:34.385Z,-2.49
2023-02-04T17:38:03.317Z,-2.48
2023-02-04T17:40:32.712Z,-2.48
2023-02-04T17:43:01.814Z,-2.47
2023-02-04T17:45:31.482Z,-2.46
2023-02-04T17:48:00.758Z,-2.45
2023-02-04T17:50:29.613Z,-2.44
2023-02-04T17:52:58.497Z,-2.41
2023-02-04T17:55:28.844Z,-2.40
2023-02-04T17:57:59.829Z,-2.38
2023-02-04T18:00:29.709Z,-2.38
2023-02-04T18:02:58.976Z,-2.37
2023-02-04T18:05:28.540Z,-2.38
2023-02-04T18:08:32.747Z,-2.38
2023-02-04T18:11:02.104Z,-2.38
2023-02-04T18:13:34.474Z,-2.38
2023-02-04T18:16:16.078Z,-2.39
2023-02-04T18:18:44.866Z,-2.38
2023-02-04T18:21:13.789Z,-2.37
2023-02-04T18:23:44.545Z,-2.35
2023-02-04T18:26:42.957Z,-2.32
2023-02-04T18:29:39.016Z,-2.29
2023-02-04T18:32:22.043Z,-2.26
2023-02-04T18:34:53.668Z,-2.25
2023-02-04T18:37:32.797Z,-2.25
2023-02-04T18:40:10.204Z,-2.25
2023-02-04T18:42:43.786Z,-2.24
2023-02-04T18:45:29.983Z,-2.25
2023-02-04T18:48:01.015Z,-2.25
2023-02-04T18:50:32.776Z,-2.24
2023-02-04T18:53:23.941Z,-2.21
2023-02-04T18:55:54.493Z,-2.20
2023-02-04T18:58:23.012Z,-2.19
2023-02-04T19:00:57.038Z,-2.16
2023-02-04T19:03:27.547Z,-2.16
2023-02-04T19:06:00.928Z,-2.16
2023-02-04T19:08:39.460Z,-2.17
2023-02-04T19:11:34.643Z,-2.18
2023-02-04T19:14:13.213Z,-2.20
2023-02-04T19:16:42.529Z,-2.22
2023-02-04T19:19:38.186Z,-2.24
2023-02-04T19:22:21.114Z,-2.24
2023-02-04T19:24:53.267Z,-2.25
2023-02-04T19:27:29.722Z,-2.24
2023-02-04T19:30:00.698Z,-2.24
2023-02-04T19:32:37.053Z,-2.24
2023-02-04T19:35:43.865Z,-2.24
2023-02-04T19:38:37.083Z,-2.25
2023-02-04T19:41:26.761Z,-2.27
2023-02-04T19:44:24.865Z,-2.28
2023-02-04T19:46:53.936Z,-2.29
2023-02-04T19:49:24.679Z,-2.30
2023-02-04T19:51:57.454Z,-2.30
2023-02-04T19:54:38.049Z,-2.30
2023-02-04T19:57:19.414Z,-2.29
2023-02-04T19:59:48.087Z,-2.31
2023-02-04T20:02:29.248Z,-2.31
2023-02-04T20:04:57.858Z,-2.31
2023-02-04T20:07:27.856Z,-2.31
2023-02-04T20:10:21.088Z,-2.31
2023-02-04T20:13:01.279Z,-2.30
2023-02-04T20:15:30.171Z,-2.28
2023-02-04T20:17:58.752Z,-2.26
2023-02-04T20:20:31.332Z,-2.25
2023-02-04T20:23:20.500Z,-2.25
2023-02-04T20:25:50.863Z,-2.24
2023-02-04T20:28:42.438Z,-2.24
2023-02-04T20:31:29.247Z,-2.24
2023-02-04T20:34:02.853Z,-2.25
2023-02-04T20:36:41.264Z,-2.25
2023-02-04T20:39:10.054Z,-2.25
2023-02-04T20:41:39.045Z,-2.27
2023-02-04T20:44:17.156Z,-2.28
2023-02-04T20:46:45.727Z,-2.30
2023-02-04T20:49:25.495Z,-2.29
2023-02-04T20:51:59.808Z,-2.28
2023-02-04T20:54:30.516Z,-2.28
2023-02-04T20:57:17.760Z,-2.27
2023-02-04T20:59:49.920Z,-2.25
2023-02-04T21:02:19.456Z,-2.24
2023-02-04T21:04:54.282Z,-2.22
2023-02-04T21:07:23.598Z,-2.21
2023-02-04T21:09:52.960Z,-2.21
2023-02-04T21:12:22.292Z,-2.21
2023-02-04T21:14:50.948Z,-2.21
2023-02-04T21:17:19.877Z,-2.22
2023-02-04T21:19:48.621Z,-2.23
2023-02-04T21:22:17.340Z,-2.23
2023-02-04T21:24:45.996Z,-2.24
2023-02-04T21:27:17.608Z,-2.23
2023-02-04T21:29:46.131Z,-2.23
2023-02-04T21:32:14.920Z,-2.23
2023-02-04T21:34:43.814Z,-2.21
2023-02-04T21:37:14.143Z,-2.21
2023-02-04T21:39:42.800Z,-2.20
2023-02-04T21:42:11.919Z,-2.19
2023-02-04T21:44:40.849Z,-2.20
2023-02-04T21:47:09.590Z,-2.20
2023-02-04T21:49:40.726Z,-2.21
2023-02-04T21:52:12.084Z,-2.22
2023-02-04T21:54:41.181Z,-2.22
2023-02-04T21:57:09.764Z,-2.23
2023-02-04T21:59:38.592Z,-2.22
2023-02-04T22:02:07.467Z,-2.22
2023-02-04T22:04:36.339Z,-2.22
2023-02-04T22:07:05.322Z,-2.21
2023-02-04T22:09:34.006Z,-2.21
2023-02-04T22:12:04.511Z,-2.21
2023-02-04T22:14:54.065Z,-2.21
2023-02-04T22:17:22.904Z,-2.21
2023-02-04T22:19:51.876Z,-2.23
2023-02-04T22:22:20.606Z,-2.26
2023-02-04T22:24:49.108Z,-2.26
2023-02-04T22:27:18.610Z,-2.25
2023-02-04T22:29:47.969Z,-2.25
2023-02-04T22:32:17.886Z,-2.23
2023-02-04T22:34:46.583Z,-2.22
2023-02-04T22:37:15.364Z,-2.20
2023-02-04T22:39:44.247Z,-2.19
2023-02-04T22:42:13.038Z,-2.19
2023-02-04T22:44:41.686Z,-2.17
2023-02-04T22:47:10.140Z,-2.15
2023-02-04T22:49:39.076Z,-2.13
2023-02-04T22:52:08.270Z,-2.11
2023-02-04T22:54:38.820Z,-2.09
2023-02-04T22:57:08.030Z,-2.10
2023-02-04T22:59:36.710Z,-2.10
2023-02-04T23:02:06.140Z,-2.11
2023-02-04T23:04:34.899Z,-2.12
2023-02-04T23:07:05.171Z,-2.11
2023-02-04T23:09:34.006Z,-2.10
2023-02-04T23:12:13.038Z,-2.10
2023-02-04T23:14:43.226Z,-2.10
2023-02-04T23:17:12.149Z,-2.09
2023-02-04T23:19:41.230Z,-2.09
2023-02-04T23:22:10.022Z,-2.08
2023-02-04T23:24:39.533Z,-2.08
2023-02-04T23:27:09.624Z,-2.06
2023-02-04T23:29:38.534Z,-2.05
2023-02-04T23:32:07.937Z,-2.03
2023-02-04T23:34:37.155Z,-2.01
2023-02-04T23:37:06.961Z,-1.98
2023-02-04T23:39:36.272Z,-1.98
2023-02-04T23:42:05.051Z,-1.99
2023-02-04T23:44:34.001Z,-1.99
2023-02-04T23:47:02.853Z,-2.01
2023-02-04T23:49:31.732Z,-2.02
2023-02-04T23:52:00.215Z,-2.02
2023-02-04T23:54:32.272Z,-2.01
2023-02-04T23:57:01.153Z,-2.00
2023-02-04T23:59:30.146Z,-1.99
